createdAt,value
2023-02-22T00:01:19.213Z,17.20
2023-02-22T00:04:04.225Z,16.07
2023-02-22T00:06:47.496Z,13.03
2023-02-22T00:09:30.525Z,13.27
2023-02-22T00:12:13.605Z,13.70
2023-02-22T00:14:58.283Z,14.10
2023-02-22T00:17:41.673Z,14.37
2023-02-22T00:20:25.207Z,15.13
2023-02-22T00:23:10.752Z,14.37
2023-02-22T00:25:54.345Z,12.57
2023-02-22T00:28:38.119Z,11.93
2023-02-22T00:31:23.722Z,12.90
2023-02-22T00:34:06.799Z,13.27
2023-02-22T00:36:50.724Z,12.77
2023-02-22T00:39:34.139Z,13.20
2023-02-22T00:42:18.155Z,12.20
2023-02-22T00:45:01.190Z,11.10
2023-02-22T00:47:46.681Z,11.23
2023-02-22T00:50:31.684Z,11.17
2023-02-22T00:53:14.914Z,11.70
2023-02-22T00:55:58.001Z,11.97
2023-02-22T00:58:41.065Z,12.27
2023-02-22T01:01:24.911Z,12.47
2023-02-22T01:04:09.641Z,9.90
2023-02-22T01:06:54.146Z,10.27
2023-02-22T01:09:39.700Z,11.63
2023-02-22T01:12:23.033Z,10.63
2023-02-22T01:15:10.480Z,11.83
2023-02-22T01:17:54.464Z,11.57
2023-02-22T01:20:39.567Z,11.40
2023-02-22T01:23:22.632Z,12.00
2023-02-22T01:26:06.156Z,11.80
2023-02-22T01:28:49.220Z,11.63
2023-02-22T01:31:32.410Z,11.47
2023-02-22T01:34:17.967Z,11.93
2023-02-22T01:37:03.017Z,11.00
2023-02-22T01:39:47.468Z,11.70
2023-02-22T01:42:30.630Z,10.07
2023-02-22T01:45:45.423Z,11.60
2023-02-22T01:48:36.594Z,10.77
2023-02-22T01:51:22.430Z,11.53
2023-02-22T01:54:11.305Z,12.03
2023-02-22T01:57:01.511Z,11.80
2023-02-22T01:59:49.380Z,10.90
2023-02-22T02:02:32.507Z,9.10
2023-02-22T02:05:15.987Z,11.10
2023-02-22T02:07:59.626Z,11.53
2023-02-22T02:10:45.756Z,10.17
2023-02-22T02:13:29.965Z,11.50
2023-02-22T02:16:13.170Z,10.37
2023-02-22T02:18:56.496Z,10.43
2023-02-22T02:22:02.661Z,10.47
2023-02-22T02:25:18.390Z,10.80
2023-02-22T02:28:23.522Z,11.80
2023-02-22T02:31:26.146Z,10.30
2023-02-22T02:34:20.464Z,10.67
2023-02-22T02:37:12.333Z,10.67
2023-02-22T02:40:01.695Z,9.30
2023-02-22T02:42:55.876Z,9.40
2023-02-22T02:45:47.298Z,9.90
2023-02-22T02:48:33.759Z,10.67
2023-02-22T02:51:19.405Z,12.67
2023-02-22T02:54:05.076Z,16.27
2023-02-22T02:56:48.763Z,16.40
2023-02-22T02:59:34.361Z,12.30
2023-02-22T03:02:37.962Z,15.90
2023-02-22T03:05:38.243Z,12.80
2023-02-22T03:08:32.611Z,11.97
2023-02-22T03:11:19.551Z,12.00
2023-02-22T03:14:13.579Z,10.73
2023-02-22T03:17:05.392Z,9.30
2023-02-22T03:19:54.797Z,9.00
2023-02-22T03:22:48.235Z,10.23
2023-02-22T03:25:37.548Z,9.70
2023-02-22T03:28:26.433Z,9.87
2023-02-22T03:31:19.617Z,10.23
2023-02-22T03:34:07.302Z,9.83
2023-02-22T03:36:57.921Z,8.70
2023-02-22T03:39:43.000Z,9.87
2023-02-22T03:42:31.882Z,10.43
2023-02-22T03:45:17.142Z,10.03
2023-02-22T03:48:06.440Z,9.43
2023-02-22T03:50:51.255Z,9.90
2023-02-22T03:53:37.256Z,9.77
2023-02-22T03:56:27.118Z,8.77
2023-02-22T03:59:12.506Z,9.80
2023-02-22T04:01:56.999Z,9.60
2023-02-22T04:04:40.283Z,9.00
2023-02-22T04:07:23.343Z,9.57
2023-02-22T04:10:09.610Z,10.47
2023-02-22T04:12:53.326Z,9.27
2023-02-22T04:15:37.873Z,9.07
2023-02-22T04:18:21.122Z,9.33
2023-02-22T04:21:04.755Z,10.93
2023-02-22T04:23:47.828Z,9.77
2023-02-22T04:26:30.966Z,10.40
2023-02-22T04:29:13.988Z,10.77
2023-02-22T04:31:59.924Z,15.00
2023-02-22T04:34:42.950Z,15.37
2023-02-22T04:37:26.655Z,14.93
2023-02-22T04:40:11.627Z,15.23
2023-02-22T04:42:54.739Z,14.73
2023-02-22T04:45:38.087Z,17.50
2023-02-22T04:48:22.526Z,17.57
2023-02-22T04:51:06.461Z,18.20
2023-02-22T04:53:49.649Z,15.47
2023-02-22T04:56:32.759Z,16.23
2023-02-22T04:59:15.993Z,20.43
2023-02-22T05:01:59.153Z,19.67
2023-02-22T05:04:43.798Z,25.90
2023-02-22T05:07:27.010Z,21.77
2023-02-22T05:10:10.752Z,21.67
2023-02-22T05:12:53.931Z,22.90
2023-02-22T05:15:37.427Z,24.57
2023-02-22T05:18:21.198Z,22.60
2023-02-22T05:21:07.159Z,23.17
2023-02-22T05:23:50.772Z,22.83
2023-02-22T05:26:33.901Z,23.60
2023-02-22T05:29:16.962Z,22.07
2023-02-22T05:32:00.267Z,21.80
2023-02-22T05:34:43.785Z,21.73
2023-02-22T05:37:28.402Z,23.03
2023-02-22T05:40:14.512Z,24.77
2023-02-22T05:42:58.706Z,27.60
2023-02-22T05:45:42.333Z,24.80
2023-02-22T05:48:25.680Z,24.20
2023-02-22T05:51:09.732Z,25.03
2023-02-22T05:53:54.281Z,25.97
2023-02-22T05:56:37.619Z,28.50
2023-02-22T05:59:20.954Z,34.33
2023-02-22T06:02:04.145Z,36.33
2023-02-22T06:04:48.748Z,38.37
2023-02-22T06:07:31.886Z,30.97
2023-02-22T06:10:16.678Z,26.70
2023-02-22T06:13:01.745Z,22.97
2023-02-22T06:15:44.745Z,22.23
2023-02-22T06:18:30.537Z,20.00
2023-02-22T06:21:13.696Z,22.07
2023-02-22T06:23:56.751Z,19.93
2023-02-22T06:26:42.108Z,20.50
2023-02-22T06:29:25.446Z,15.93
2023-02-22T06:32:08.820Z,11.13
2023-02-22T06:34:51.991Z,11.20
2023-02-22T06:37:35.524Z,11.73
2023-02-22T06:40:18.933Z,11.23
2023-02-22T06:43:03.600Z,10.40
2023-02-22T06:45:46.867Z,10.00
2023-02-22T06:48:31.516Z,10.80
2023-02-22T06:51:14.895Z,10.50
2023-02-22T06:53:58.160Z,10.07
2023-02-22T06:56:42.030Z,9.33
2023-02-22T06:59:28.154Z,11.07
2023-02-22T07:02:12.738Z,8.93
2023-02-22T07:04:58.230Z,9.83
2023-02-22T07:07:41.399Z,9.97
2023-02-22T07:10:41.159Z,10.50
2023-02-22T07:13:24.369Z,10.47
2023-02-22T07:16:08.941Z,9.17
2023-02-22T07:18:52.384Z,10.47
2023-02-22T07:21:35.516Z,18.60
2023-02-22T07:24:18.829Z,29.27
2023-02-22T07:27:02.469Z,30.67
2023-02-22T07:29:46.881Z,28.40
2023-02-22T07:32:31.624Z,26.47
2023-02-22T07:35:19.266Z,24.33
2023-02-22T07:38:02.409Z,23.63
2023-02-22T07:40:46.104Z,24.87
2023-02-22T07:43:31.629Z,24.97
2023-02-22T07:46:14.667Z,23.63
2023-02-22T07:48:59.203Z,22.97
2023-02-22T07:51:42.307Z,22.53
2023-02-22T07:54:25.702Z,20.13
2023-02-22T07:57:10.861Z,21.40
2023-02-22T07:59:53.968Z,20.27
2023-02-22T08:02:37.181Z,21.03
2023-02-22T08:05:23.622Z,20.77
2023-02-22T08:08:07.760Z,20.33
2023-02-22T08:10:52.086Z,19.83
2023-02-22T08:13:37.297Z,19.70
2023-02-22T08:16:20.649Z,19.13
2023-02-22T08:19:03.867Z,18.73
2023-02-22T08:21:48.367Z,18.10
2023-02-22T08:24:32.704Z,18.97
2023-02-22T08:27:15.850Z,19.23
2023-02-22T08:29:58.985Z,20.37
2023-02-22T08:32:42.253Z,19.90
2023-02-22T08:35:25.975Z,20.20
2023-02-22T08:38:18.372Z,19.93
2023-02-22T08:41:01.677Z,21.00
2023-02-22T08:43:44.840Z,19.07
2023-02-22T08:46:27.933Z,19.70
2023-02-22T08:49:10.970Z,20.03
2023-02-22T08:51:54.097Z,19.53
2023-02-22T08:54:38.771Z,20.53
2023-02-22T08:57:21.972Z,18.93
2023-02-22T09:00:06.448Z,18.50
2023-02-22T09:02:49.490Z,17.87
2023-02-22T09:05:33.180Z,17.10
2023-02-22T09:08:18.125Z,17.33
2023-02-22T09:11:02.923Z,15.82
2023-02-22T09:13:46.008Z,16.10
2023-02-22T09:16:36.678Z,13.90
2023-02-22T09:19:19.833Z,14.27
2023-02-22T09:22:03.220Z,14.00
2023-02-22T09:24:46.326Z,15.45
2023-02-22T09:27:30.876Z,14.88
2023-02-22T09:30:19.368Z,15.30
2023-02-22T09:33:04.430Z,12.85
2023-02-22T09:35:50.018Z,13.38
2023-02-22T09:38:38.544Z,14.75
2023-02-22T09:44:49.552Z,16.73
2023-02-22T09:47:41.105Z,13.63
2023-02-22T09:50:27.473Z,12.23
2023-02-22T09:53:29.689Z,11.20
2023-02-22T09:56:17.584Z,11.60
2023-02-22T09:59:05.118Z,10.90
2023-02-22T10:01:55.842Z,10.93
2023-02-22T10:04:44.606Z,10.50
2023-02-22T10:07:33.621Z,10.63
2023-02-22T10:10:20.408Z,10.20
2023-02-22T10:13:14.160Z,9.27
2023-02-22T10:16:05.391Z,9.07
2023-02-22T10:19:16.173Z,9.23
2023-02-22T10:22:31.279Z,7.60
2023-02-22T10:25:18.203Z,6.93
2023-02-22T10:28:07.504Z,7.40
2023-02-22T10:30:56.350Z,7.40
2023-02-22T10:33:46.267Z,7.23
2023-02-22T10:36:31.169Z,6.70
2023-02-22T10:39:22.703Z,6.43
2023-02-22T10:42:08.304Z,6.50
2023-02-22T10:44:51.656Z,6.40
2023-02-22T10:47:36.115Z,6.88
2023-02-22T10:50:21.746Z,6.40
2023-02-22T10:53:06.270Z,6.07
2023-02-22T10:56:19.344Z,6.40
2023-02-22T10:59:06.237Z,6.03
2023-02-22T11:01:50.102Z,6.50
2023-02-22T11:04:47.163Z,6.07
2023-02-22T11:07:32.370Z,6.32
2023-02-22T11:10:32.456Z,6.80
2023-02-22T11:13:19.716Z,7.00
2023-02-22T11:16:18.789Z,6.63
2023-02-22T11:19:03.274Z,6.95
2023-02-22T11:21:46.560Z,6.93
2023-02-22T11:24:43.559Z,7.20
2023-02-22T11:27:39.367Z,6.75
2023-02-22T11:30:29.530Z,7.00
2023-02-22T11:33:23.504Z,6.35
2023-02-22T11:36:10.475Z,6.10
2023-02-22T11:39:03.317Z,6.28
2023-02-22T11:41:46.586Z,7.03
2023-02-22T11:44:32.574Z,7.20
2023-02-22T11:47:15.575Z,5.82
2023-02-22T11:49:58.793Z,5.80
2023-02-22T11:52:47.404Z,6.40
2023-02-22T11:55:43.200Z,7.80
2023-02-22T11:58:40.984Z,7.10
2023-02-22T12:01:37.192Z,8.90
2023-02-22T12:04:54.173Z,6.93
2023-02-22T12:07:52.351Z,7.67
2023-02-22T12:10:56.078Z,8.53
2023-02-22T12:13:50.029Z,9.63
2023-02-22T12:16:51.484Z,8.30
2023-02-22T12:19:38.133Z,8.10
2023-02-22T12:22:28.015Z,8.67
2023-02-22T12:25:20.757Z,7.90
2023-02-22T12:28:24.197Z,8.40
2023-02-22T12:31:17.238Z,8.40
2023-02-22T12:34:09.902Z,8.27
2023-02-22T12:36:57.045Z,7.77
2023-02-22T12:39:58.641Z,7.97
2023-02-22T12:42:51.956Z,8.20
2023-02-22T12:45:41.884Z,8.07
2023-02-22T12:48:37.706Z,7.70
2023-02-22T12:51:32.424Z,8.00
2023-02-22T12:54:23.307Z,8.47
2023-02-22T12:57:13.052Z,8.57
2023-02-22T12:59:59.406Z,8.97
2023-02-22T13:02:47.054Z,8.50
2023-02-22T13:05:36.868Z,7.87
2023-02-22T13:08:31.457Z,8.50
2023-02-22T13:11:26.211Z,8.57
2023-02-22T13:14:23.955Z,8.23
2023-02-22T13:17:15.022Z,8.50
2023-02-22T13:20:02.519Z,8.60
2023-02-22T13:22:51.353Z,9.07
2023-02-22T13:25:45.034Z,8.40
2023-02-22T13:28:39.871Z,8.40
2023-02-22T13:31:45.546Z,7.93
2023-02-22T13:34:45.745Z,8.07
2023-02-22T13:37:57.117Z,8.40
2023-02-22T13:40:54.953Z,9.20
2023-02-22T13:44:15.224Z,8.70
2023-02-22T13:47:21.023Z,9.40
2023-02-22T13:50:26.783Z,8.63
2023-02-22T13:53:18.271Z,9.63
2023-02-22T13:56:06.026Z,8.63
2023-02-22T13:58:55.218Z,9.53
2023-02-22T14:01:47.558Z,9.03
2023-02-22T14:04:44.182Z,8.80
2023-02-22T14:08:04.284Z,8.50
2023-02-22T14:10:52.818Z,12.60
2023-02-22T14:14:17.896Z,8.33
2023-02-22T14:17:31.471Z,8.47
2023-02-22T14:20:32.863Z,9.37
2023-02-22T14:23:37.480Z,9.37
2023-02-22T14:26:29.040Z,10.30
2023-02-22T14:29:23.870Z,9.00
2023-02-22T14:32:10.765Z,9.57
2023-02-22T14:35:01.852Z,8.73
2023-02-22T14:37:50.708Z,8.97
2023-02-22T14:40:37.628Z,10.57
2023-02-22T14:43:24.861Z,9.03
2023-02-22T14:46:17.397Z,9.30
2023-02-22T14:49:06.425Z,9.50
2023-02-22T14:51:55.448Z,9.53
2023-02-22T14:54:48.665Z,10.60
2023-02-22T14:57:42.389Z,9.07
2023-02-22T15:00:38.819Z,10.70
2023-02-22T15:03:34.404Z,9.03
2023-02-22T15:06:23.424Z,9.80
2023-02-22T15:09:10.052Z,9.33
2023-02-22T15:11:55.253Z,8.87
2023-02-22T15:14:41.275Z,10.90
2023-02-22T15:17:26.383Z,9.40
2023-02-22T15:20:17.077Z,8.80
2023-02-22T15:23:01.220Z,11.37
2023-02-22T15:25:49.563Z,9.10
2023-02-22T15:28:32.878Z,9.83
2023-02-22T15:31:27.326Z,8.97
2023-02-22T15:34:24.649Z,10.13
2023-02-22T15:37:25.774Z,8.97
2023-02-22T15:40:15.945Z,9.63
2023-02-22T15:42:59.461Z,9.83
2023-02-22T15:45:43.299Z,10.43
2023-02-22T15:48:27.251Z,11.47
2023-02-22T15:51:15.417Z,15.97
2023-02-22T15:54:04.824Z,10.93
2023-02-22T15:56:55.611Z,11.27
2023-02-22T15:59:45.121Z,12.00
2023-02-22T16:02:35.870Z,15.67
2023-02-22T16:05:20.056Z,14.97
2023-02-22T16:08:04.390Z,16.07
2023-02-22T16:10:59.391Z,11.47
2023-02-22T16:13:43.952Z,12.17
2023-02-22T16:16:32.397Z,12.90
2023-02-22T16:19:28.082Z,12.30
2023-02-22T16:22:26.955Z,11.93
2023-02-22T16:25:33.311Z,12.73
2023-02-22T16:28:30.851Z,13.90
2023-02-22T16:31:14.003Z,13.23
2023-02-22T16:33:57.189Z,14.30
2023-02-22T16:36:42.876Z,13.10
2023-02-22T16:39:28.264Z,13.67
2023-02-22T16:42:13.761Z,14.03
2023-02-22T16:44:58.553Z,14.03
2023-02-22T16:47:41.655Z,14.80
2023-02-22T16:50:28.351Z,13.57
2023-02-22T16:53:12.195Z,14.37
2023-02-22T16:56:02.234Z,13.07
2023-02-22T16:58:46.433Z,13.60
2023-02-22T17:01:35.214Z,13.40
2023-02-22T17:04:22.176Z,15.33
2023-02-22T17:07:05.543Z,12.87
2023-02-22T17:09:48.746Z,14.60
2023-02-22T17:12:32.994Z,13.07
2023-02-22T17:15:24.166Z,12.93
2023-02-22T17:18:14.133Z,13.47
2023-02-22T17:20:57.418Z,15.33
2023-02-22T17:23:46.021Z,13.60
2023-02-22T17:26:29.249Z,13.53
2023-02-22T17:29:13.968Z,13.67
2023-02-22T17:31:57.768Z,13.03
2023-02-22T17:34:42.429Z,13.77
2023-02-22T17:37:25.756Z,12.80
2023-02-22T17:40:09.756Z,14.07
2023-02-22T17:42:55.294Z,13.87
2023-02-22T17:45:42.362Z,13.43
2023-02-22T17:48:25.854Z,14.20
2023-02-22T17:51:12.350Z,14.20
2023-02-22T17:53:55.743Z,14.50
2023-02-22T17:56:38.926Z,13.77
2023-02-22T17:59:23.505Z,16.87
2023-02-22T18:02:06.706Z,16.60
2023-02-22T18:04:50.420Z,16.97
2023-02-22T18:07:34.990Z,19.20
2023-02-22T18:10:20.811Z,20.43
2023-02-22T18:13:04.278Z,19.17
2023-02-22T18:15:48.754Z,20.07
2023-02-22T18:18:31.840Z,20.13
2023-02-22T18:21:16.309Z,20.57
2023-02-22T18:24:00.823Z,19.60
2023-02-22T18:26:44.133Z,20.07
2023-02-22T18:29:29.062Z,20.10
2023-02-22T18:32:13.470Z,22.10
2023-02-22T18:34:57.171Z,21.00
2023-02-22T18:37:41.041Z,21.83
2023-02-22T18:40:28.974Z,22.50
2023-02-22T18:43:14.049Z,20.23
2023-02-22T18:46:06.889Z,20.40
2023-02-22T18:48:53.296Z,18.30
2023-02-22T18:51:36.323Z,17.30
2023-02-22T18:54:19.813Z,17.37
2023-02-22T18:57:05.675Z,16.57
2023-02-22T18:59:48.967Z,16.17
2023-02-22T19:02:32.129Z,14.57
2023-02-22T19:05:17.467Z,15.27
2023-02-22T19:08:01.060Z,14.43
2023-02-22T19:10:44.780Z,15.03
2023-02-22T19:13:31.405Z,16.07
2023-02-22T19:16:16.344Z,15.00
2023-02-22T19:19:01.181Z,14.20
2023-02-22T19:21:44.284Z,14.67
2023-02-22T19:24:27.394Z,15.47
2023-02-22T19:27:10.496Z,15.03
2023-02-22T19:29:55.045Z,31.40
2023-02-22T19:32:40.900Z,29.23
2023-02-22T19:35:32.931Z,29.03
2023-02-22T19:38:16.214Z,30.13
2023-02-22T19:40:59.226Z,30.53
2023-02-22T19:43:42.384Z,27.63
2023-02-22T19:46:27.052Z,32.43
2023-02-22T19:49:10.116Z,30.73
2023-02-22T19:51:58.160Z,31.87
2023-02-22T19:54:41.468Z,34.33
2023-02-22T19:57:25.727Z,37.13
2023-02-22T20:00:13.868Z,35.47
2023-02-22T20:03:05.936Z,30.60
2023-02-22T20:05:49.114Z,26.53
2023-02-22T20:08:33.610Z,28.03
2023-02-22T20:11:17.285Z,27.17
2023-02-22T20:14:02.677Z,28.17
2023-02-22T20:16:46.102Z,24.67
2023-02-22T20:19:30.968Z,30.90
2023-02-22T20:22:14.099Z,31.27
2023-02-22T20:24:57.414Z,24.80
2023-02-22T20:27:41.139Z,21.53
2023-02-22T20:30:24.496Z,19.60
2023-02-22T20:33:10.429Z,19.60
2023-02-22T20:35:54.953Z,18.80
2023-02-22T20:38:38.370Z,19.20
2023-02-22T20:41:26.466Z,17.80
2023-02-22T20:44:11.408Z,18.83
2023-02-22T20:46:55.633Z,19.23
2023-02-22T20:49:38.784Z,18.77
2023-02-22T20:52:23.587Z,19.00
2023-02-22T20:55:11.817Z,21.70
2023-02-22T20:57:55.677Z,21.77
2023-02-22T21:00:39.362Z,20.33
2023-02-22T21:03:22.694Z,19.17
2023-02-22T21:06:07.943Z,18.07
2023-02-22T21:08:54.931Z,17.67
2023-02-22T21:11:39.021Z,16.57
2023-02-22T21:14:24.338Z,17.73
2023-02-22T21:17:10.595Z,15.80
2023-02-22T21:19:54.015Z,16.90
2023-02-22T21:22:39.056Z,15.87
2023-02-22T21:25:24.952Z,19.03
2023-02-22T21:28:08.071Z,18.23
2023-02-22T21:30:51.488Z,19.03
2023-02-22T21:33:35.130Z,18.70
2023-02-22T21:36:18.240Z,17.07
2023-02-22T21:39:08.987Z,15.60
2023-02-22T21:41:55.101Z,14.70
2023-02-22T21:44:40.746Z,15.13
2023-02-22T21:47:23.916Z,15.17
2023-02-22T21:50:10.333Z,16.17
2023-02-22T21:52:53.492Z,15.27
2023-02-22T21:55:38.184Z,14.70
2023-02-22T21:58:22.750Z,14.47
2023-02-22T22:01:07.256Z,14.67
2023-02-22T22:03:51.012Z,14.93
2023-02-22T22:06:35.735Z,14.80
2023-02-22T22:09:19.750Z,14.33
2023-02-22T22:12:05.267Z,15.50
2023-02-22T22:14:50.974Z,15.10
2023-02-22T22:17:34.041Z,16.20
2023-02-22T22:20:18.156Z,18.57
2023-02-22T22:23:01.201Z,15.47
2023-02-22T22:25:46.025Z,15.57
2023-02-22T22:28:29.371Z,15.73
2023-02-22T22:31:15.439Z,15.73
2023-02-22T22:34:00.241Z,14.63
2023-02-22T22:36:43.656Z,14.50
2023-02-22T22:39:27.321Z,15.13
2023-02-22T22:42:10.862Z,15.10
2023-02-22T22:44:54.177Z,15.40
2023-02-22T22:47:38.990Z,15.77
2023-02-22T22:50:26.545Z,16.43
2023-02-22T22:53:09.892Z,16.03
2023-02-22T22:55:53.081Z,16.03
2023-02-22T22:58:37.057Z,15.40
2023-02-22T23:01:27.018Z,15.93
2023-02-22T23:04:13.769Z,16.33
2023-02-22T23:06:57.776Z,17.17
2023-02-22T23:09:42.596Z,16.73
2023-02-22T23:12:31.596Z,15.73
2023-02-22T23:15:15.359Z,15.13
2023-02-22T23:17:59.372Z,16.40
2023-02-22T23:20:43.884Z,16.90
2023-02-22T23:23:27.897Z,16.73
2023-02-22T23:26:18.022Z,16.80
2023-02-22T23:29:01.199Z,15.63
2023-02-22T23:31:44.373Z,14.27
2023-02-22T23:34:29.058Z,15.43
2023-02-22T23:37:14.242Z,15.33
2023-02-22T23:40:00.253Z,15.47
2023-02-22T23:42:43.704Z,15.40
2023-02-22T23:45:28.092Z,14.30
2023-02-22T23:48:12.657Z,18.77
2023-02-22T23:50:59.150Z,19.23
2023-02-22T23:53:46.218Z,19.30
2023-02-22T23:56:30.965Z,17.47
2023-02-22T23:59:15.795Z,17.90
